sensor_id;sensor_type;location;lat;lon;timestamp;P1;durP1;ratioP1;P2;durP2;ratioP2
58615;SDS011;44385;51.992;4.206;2023-07-20T00:03:12;2.58;;;1.58;;
58615;SDS011;44385;51.992;4.206;2023-07-20T00:05:46;2.30;;;1.30;;
58615;SDS011;44385;51.992;4.206;2023-07-20T00:08:23;2.70;;;1.70;;
58615;SDS011;44385;51.992;4.206;2023-07-20T00:11:03;1.85;;;1.60;;
58615;SDS011;44385;51.992;4.206;2023-07-20T00:22:18;2.17;;;1.15;;
58615;SDS011;44385;51.992;4.206;2023-07-20T00:25:01;1.23;;;1.10;;
58615;SDS011;44385;51.992;4.206;2023-07-20T00:27:32;1.95;;;1.17;;
58615;SDS011;44385;51.992;4.206;2023-07-20T00:30:19;1.40;;;0.90;;
58615;SDS011;44385;51.992;4.206;2023-07-20T00:33:10;0.88;;;0.73;;
58615;SDS011;44385;51.992;4.206;2023-07-20T00:36:09;1.02;;;0.75;;
58615;SDS011;44385;51.992;4.206;2023-07-20T00:39:07;0.52;;;0.52;;
58615;SDS011;44385;51.992;4.206;2023-07-20T00:41:43;0.80;;;0.70;;
58615;SDS011;44385;51.992;4.206;2023-07-20T00:50:23;1.42;;;0.35;;
58615;SDS011;44385;51.992;4.206;2023-07-20T00:53:06;0.45;;;0.40;;
58615;SDS011;44385;51.992;4.206;2023-07-20T00:58:36;0.43;;;0.30;;
58615;SDS011;44385;51.992;4.206;2023-07-20T01:01:12;0.50;;;0.40;;
58615;SDS011;44385;51.992;4.206;2023-07-20T01:04:13;0.30;;;0.30;;
58615;SDS011;44385;51.992;4.206;2023-07-20T01:09:44;0.55;;;0.40;;
58615;SDS011;44385;51.992;4.206;2023-07-20T01:12:32;1.13;;;0.50;;
58615;SDS011;44385;51.992;4.206;2023-07-20T01:15:32;0.63;;;0.50;;
58615;SDS011;44385;51.992;4.206;2023-07-20T01:18:15;1.17;;;0.40;;
58615;SDS011;44385;51.992;4.206;2023-07-20T01:21:05;1.42;;;0.57;;
58615;SDS011;44385;51.992;4.206;2023-07-20T01:29:52;1.42;;;0.50;;
58615;SDS011;44385;51.992;4.206;2023-07-20T01:32:28;0.95;;;0.40;;
58615;SDS011;44385;51.992;4.206;2023-07-20T01:35:00;0.40;;;0.40;;
58615;SDS011;44385;51.992;4.206;2023-07-20T01:37:28;0.30;;;0.30;;
58615;SDS011;44385;51.992;4.206;2023-07-20T01:40:04;0.63;;;0.30;;
58615;SDS011;44385;51.992;4.206;2023-07-20T01:42:35;0.50;;;0.50;;
58615;SDS011;44385;51.992;4.206;2023-07-20T01:45:07;1.08;;;0.40;;
58615;SDS011;44385;51.992;4.206;2023-07-20T01:47:44;3.00;;;0.60;;
58615;SDS011;44385;51.992;4.206;2023-07-20T01:50:13;1.33;;;0.40;;
58615;SDS011;44385;51.992;4.206;2023-07-20T01:52:42;0.73;;;0.40;;
58615;SDS011;44385;51.992;4.206;2023-07-20T01:55:12;1.30;;;0.38;;
58615;SDS011;44385;51.992;4.206;2023-07-20T01:57:50;0.52;;;0.40;;
58615;SDS011;44385;51.992;4.206;2023-07-20T02:00:19;1.35;;;0.35;;
58615;SDS011;44385;51.992;4.206;2023-07-20T02:02:52;0.30;;;0.30;;
58615;SDS011;44385;51.992;4.206;2023-07-20T02:05:19;0.40;;;0.30;;
58615;SDS011;44385;51.992;4.206;2023-07-20T02:07:47;0.50;;;0.40;;
58615;SDS011;44385;51.992;4.206;2023-07-20T02:10:18;0.65;;;0.50;;
58615;SDS011;44385;51.992;4.206;2023-07-20T02:12:47;0.52;;;0.43;;
58615;SDS011;44385;51.992;4.206;2023-07-20T02:15:19;0.65;;;0.30;;
58615;SDS011;44385;51.992;4.206;2023-07-20T02:17:48;0.82;;;0.32;;
58615;SDS011;44385;51.992;4.206;2023-07-20T02:20:16;0.60;;;0.60;;
58615;SDS011;44385;51.992;4.206;2023-07-20T02:22:46;0.75;;;0.45;;
58615;SDS011;44385;51.992;4.206;2023-07-20T02:25:16;1.58;;;0.30;;
58615;SDS011;44385;51.992;4.206;2023-07-20T02:27:47;0.60;;;0.43;;
58615;SDS011;44385;51.992;4.206;2023-07-20T02:30:17;0.70;;;0.60;;
58615;SDS011;44385;51.992;4.206;2023-07-20T02:32:44;0.50;;;0.50;;
58615;SDS011;44385;51.992;4.206;2023-07-20T02:35:19;0.98;;;0.63;;
58615;SDS011;44385;51.992;4.206;2023-07-20T02:37:48;1.98;;;0.73;;
58615;SDS011;44385;51.992;4.206;2023-07-20T02:40:16;0.88;;;0.60;;
58615;SDS011;44385;51.992;4.206;2023-07-20T02:42:50;1.83;;;0.70;;
58615;SDS011;44385;51.992;4.206;2023-07-20T02:45:20;1.10;;;0.50;;
58615;SDS011;44385;51.992;4.206;2023-07-20T02:47:50;1.05;;;0.68;;
58615;SDS011;44385;51.992;4.206;2023-07-20T02:50:31;3.05;;;0.75;;
58615;SDS011;44385;51.992;4.206;2023-07-20T02:53:05;0.43;;;0.43;;
58615;SDS011;44385;51.992;4.206;2023-07-20T02:55:34;1.92;;;0.95;;
58615;SDS011;44385;51.992;4.206;2023-07-20T02:58:07;1.80;;;1.20;;
58615;SDS011;44385;51.992;4.206;2023-07-20T03:00:42;1.98;;;0.75;;
58615;SDS011;44385;51.992;4.206;2023-07-20T03:03:10;0.98;;;0.85;;
58615;SDS011;44385;51.992;4.206;2023-07-20T03:05:42;1.95;;;0.80;;
58615;SDS011;44385;51.992;4.206;2023-07-20T03:08:08;1.63;;;0.82;;
58615;SDS011;44385;51.992;4.206;2023-07-20T03:13:08;1.00;;;1.00;;
58615;SDS011;44385;51.992;4.206;2023-07-20T03:15:35;0.90;;;0.70;;
58615;SDS011;44385;51.992;4.206;2023-07-20T03:18:04;0.98;;;0.93;;
58615;SDS011;44385;51.992;4.206;2023-07-20T03:20:32;0.88;;;0.82;;
58615;SDS011;44385;51.992;4.206;2023-07-20T03:23:08;0.80;;;0.80;;
58615;SDS011;44385;51.992;4.206;2023-07-20T03:25:34;1.20;;;1.10;;
58615;SDS011;44385;51.992;4.206;2023-07-20T03:28:02;0.98;;;0.93;;
58615;SDS011;44385;51.992;4.206;2023-07-20T03:30:44;4.57;;;1.10;;
58615;SDS011;44385;51.992;4.206;2023-07-20T03:33:14;2.10;;;2.00;;
58615;SDS011;44385;51.992;4.206;2023-07-20T03:35:44;1.83;;;1.05;;
58615;SDS011;44385;51.992;4.206;2023-07-20T03:38:13;2.15;;;0.95;;
58615;SDS011;44385;51.992;4.206;2023-07-20T03:40:55;2.50;;;1.10;;
58615;SDS011;44385;51.992;4.206;2023-07-20T03:43:28;1.92;;;1.13;;
58615;SDS011;44385;51.992;4.206;2023-07-20T03:46:03;1.33;;;1.23;;
58615;SDS011;44385;51.992;4.206;2023-07-20T03:48:51;1.67;;;1.27;;
58615;SDS011;44385;51.992;4.206;2023-07-20T03:51:41;0.98;;;0.93;;
58615;SDS011;44385;51.992;4.206;2023-07-20T03:54:28;5.32;;;1.65;;
58615;SDS011;44385;51.992;4.206;2023-07-20T03:57:03;1.98;;;1.33;;
58615;SDS011;44385;51.992;4.206;2023-07-20T03:59:32;1.83;;;1.30;;
58615;SDS011;44385;51.992;4.206;2023-07-20T04:01:59;1.85;;;1.42;;
58615;SDS011;44385;51.992;4.206;2023-07-20T04:04:25;2.88;;;1.65;;
58615;SDS011;44385;51.992;4.206;2023-07-20T04:06:51;2.38;;;0.90;;
58615;SDS011;44385;51.992;4.206;2023-07-20T04:09:18;1.50;;;1.40;;
58615;SDS011;44385;51.992;4.206;2023-07-20T04:11:46;1.65;;;1.25;;
58615;SDS011;44385;51.992;4.206;2023-07-20T04:14:12;2.85;;;1.23;;
58615;SDS011;44385;51.992;4.206;2023-07-20T04:16:38;1.17;;;1.08;;
58615;SDS011;44385;51.992;4.206;2023-07-20T04:19:05;1.48;;;1.30;;
58615;SDS011;44385;51.992;4.206;2023-07-20T04:21:31;2.17;;;1.45;;
58615;SDS011;44385;51.992;4.206;2023-07-20T04:23:58;1.48;;;1.30;;
58615;SDS011;44385;51.992;4.206;2023-07-20T04:26:24;1.83;;;1.50;;
58615;SDS011;44385;51.992;4.206;2023-07-20T04:28:52;2.58;;;1.42;;
58615;SDS011;44385;51.992;4.206;2023-07-20T04:31:21;2.25;;;1.40;;
58615;SDS011;44385;51.992;4.206;2023-07-20T04:33:47;2.15;;;1.50;;
58615;SDS011;44385;51.992;4.206;2023-07-20T04:36:14;2.95;;;1.85;;
58615;SDS011;44385;51.992;4.206;2023-07-20T04:38:44;1.83;;;1.33;;
58615;SDS011;44385;51.992;4.206;2023-07-20T04:41:10;3.13;;;1.52;;
58615;SDS011;44385;51.992;4.206;2023-07-20T04:43:40;3.88;;;1.30;;
58615;SDS011;44385;51.992;4.206;2023-07-20T04:46:08;2.13;;;1.33;;
58615;SDS011;44385;51.992;4.206;2023-07-20T04:48:34;2.85;;;1.50;;
58615;SDS011;44385;51.992;4.206;2023-07-20T04:51:01;2.17;;;1.40;;
58615;SDS011;44385;51.992;4.206;2023-07-20T04:53:28;2.50;;;1.67;;
58615;SDS011;44385;51.992;4.206;2023-07-20T04:55:56;3.28;;;1.77;;
58615;SDS011;44385;51.992;4.206;2023-07-20T04:58:22;2.67;;;1.55;;
58615;SDS011;44385;51.992;4.206;2023-07-20T05:00:49;1.92;;;1.60;;
58615;SDS011;44385;51.992;4.206;2023-07-20T05:03:17;1.80;;;1.67;;
58615;SDS011;44385;51.992;4.206;2023-07-20T05:05:44;3.50;;;2.17;;
58615;SDS011;44385;51.992;4.206;2023-07-20T05:08:10;2.05;;;1.77;;
58615;SDS011;44385;51.992;4.206;2023-07-20T05:10:36;1.92;;;1.73;;
58615;SDS011;44385;51.992;4.206;2023-07-20T05:13:03;1.60;;;1.50;;
58615;SDS011;44385;51.992;4.206;2023-07-20T05:15:32;4.25;;;1.35;;
58615;SDS011;44385;51.992;4.206;2023-07-20T05:17:58;2.70;;;1.80;;
58615;SDS011;44385;51.992;4.206;2023-07-20T05:20:27;1.33;;;1.23;;
58615;SDS011;44385;51.992;4.206;2023-07-20T05:22:53;4.20;;;1.70;;
58615;SDS011;44385;51.992;4.206;2023-07-20T05:25:22;2.40;;;1.30;;
58615;SDS011;44385;51.992;4.206;2023-07-20T05:27:48;2.00;;;1.38;;
58615;SDS011;44385;51.992;4.206;2023-07-20T05:30:15;4.32;;;1.40;;
58615;SDS011;44385;51.992;4.206;2023-07-20T05:32:42;2.08;;;1.45;;
58615;SDS011;44385;51.992;4.206;2023-07-20T05:35:19;1.60;;;1.50;;
58615;SDS011;44385;51.992;4.206;2023-07-20T05:37:49;2.13;;;1.23;;
58615;SDS011;44385;51.992;4.206;2023-07-20T05:40:15;1.95;;;1.25;;
58615;SDS011;44385;51.992;4.206;2023-07-20T05:42:44;1.83;;;1.37;;
58615;SDS011;44385;51.992;4.206;2023-07-20T05:45:13;1.75;;;1.42;;
58615;SDS011;44385;51.992;4.206;2023-07-20T05:47:41;1.67;;;1.20;;
58615;SDS011;44385;51.992;4.206;2023-07-20T05:50:10;2.78;;;1.17;;
58615;SDS011;44385;51.992;4.206;2023-07-20T05:55:07;1.40;;;1.10;;
58615;SDS011;44385;51.992;4.206;2023-07-20T05:57:34;1.48;;;1.10;;
58615;SDS011;44385;51.992;4.206;2023-07-20T06:00:01;2.28;;;1.10;;
58615;SDS011;44385;51.992;4.206;2023-07-20T06:04:59;1.58;;;1.10;;
58615;SDS011;44385;51.992;4.206;2023-07-20T06:07:28;1.27;;;1.17;;
58615;SDS011;44385;51.992;4.206;2023-07-20T06:09:59;1.50;;;1.05;;
58615;SDS011;44385;51.992;4.206;2023-07-20T06:12:27;2.65;;;1.20;;
58615;SDS011;44385;51.992;4.206;2023-07-20T06:14:54;4.03;;;1.20;;
58615;SDS011;44385;51.992;4.206;2023-07-20T06:17:21;2.20;;;0.93;;
58615;SDS011;44385;51.992;4.206;2023-07-20T06:19:48;1.70;;;0.95;;
58615;SDS011;44385;51.992;4.206;2023-07-20T06:22:14;2.85;;;1.13;;
58615;SDS011;44385;51.992;4.206;2023-07-20T06:24:41;1.95;;;0.90;;
58615;SDS011;44385;51.992;4.206;2023-07-20T06:27:07;1.08;;;0.90;;
58615;SDS011;44385;51.992;4.206;2023-07-20T06:29:36;1.65;;;1.02;;
58615;SDS011;44385;51.992;4.206;2023-07-20T06:32:05;2.30;;;1.10;;
58615;SDS011;44385;51.992;4.206;2023-07-20T06:34:34;2.40;;;1.13;;
58615;SDS011;44385;51.992;4.206;2023-07-20T06:37:02;1.17;;;1.08;;
58615;SDS011;44385;51.992;4.206;2023-07-20T06:39:31;1.75;;;1.10;;
58615;SDS011;44385;51.992;4.206;2023-07-20T06:42:02;1.58;;;1.10;;
58615;SDS011;44385;51.992;4.206;2023-07-20T06:44:32;0.70;;;0.70;;
58615;SDS011;44385;51.992;4.206;2023-07-20T06:46:59;5.03;;;1.00;;
58615;SDS011;44385;51.992;4.206;2023-07-20T06:49:32;1.48;;;0.70;;
58615;SDS011;44385;51.992;4.206;2023-07-20T06:52:03;1.10;;;1.00;;
58615;SDS011;44385;51.992;4.206;2023-07-20T06:54:30;1.08;;;0.90;;
58615;SDS011;44385;51.992;4.206;2023-07-20T06:57:00;3.88;;;1.70;;
58615;SDS011;44385;51.992;4.206;2023-07-20T06:59:28;1.00;;;0.80;;
58615;SDS011;44385;51.992;4.206;2023-07-20T07:01:55;2.45;;;0.90;;
58615;SDS011;44385;51.992;4.206;2023-07-20T07:04:23;0.90;;;0.90;;
58615;SDS011;44385;51.992;4.206;2023-07-20T07:06:50;0.90;;;0.80;;
58615;SDS011;44385;51.992;4.206;2023-07-20T07:09:17;2.50;;;1.00;;
58615;SDS011;44385;51.992;4.206;2023-07-20T07:11:43;1.30;;;0.90;;
58615;SDS011;44385;51.992;4.206;2023-07-20T07:14:11;2.33;;;0.82;;
58615;SDS011;44385;51.992;4.206;2023-07-20T07:16:40;1.10;;;0.80;;
58615;SDS011;44385;51.992;4.206;2023-07-20T07:19:07;1.42;;;1.00;;
58615;SDS011;44385;51.992;4.206;2023-07-20T07:21:42;1.20;;;1.10;;
58615;SDS011;44385;51.992;4.206;2023-07-20T07:24:09;0.88;;;0.73;;
58615;SDS011;44385;51.992;4.206;2023-07-20T07:26:35;1.55;;;0.88;;
58615;SDS011;44385;51.992;4.206;2023-07-20T07:29:05;1.15;;;0.98;;
58615;SDS011;44385;51.992;4.206;2023-07-20T07:31:33;2.13;;;0.73;;
58615;SDS011;44385;51.992;4.206;2023-07-20T07:34:00;0.50;;;0.50;;
58615;SDS011;44385;51.992;4.206;2023-07-20T07:36:26;1.02;;;0.80;;
58615;SDS011;44385;51.992;4.206;2023-07-20T07:39:01;1.80;;;0.70;;
58615;SDS011;44385;51.992;4.206;2023-07-20T07:41:28;0.70;;;0.70;;
58615;SDS011;44385;51.992;4.206;2023-07-20T07:43:56;0.98;;;0.88;;
58615;SDS011;44385;51.992;4.206;2023-07-20T07:46:22;1.10;;;0.80;;
58615;SDS011;44385;51.992;4.206;2023-07-20T07:48:49;2.13;;;1.00;;
58615;SDS011;44385;51.992;4.206;2023-07-20T07:51:15;2.70;;;0.90;;
58615;SDS011;44385;51.992;4.206;2023-07-20T07:53:45;1.05;;;0.80;;
58615;SDS011;44385;51.992;4.206;2023-07-20T07:56:13;1.00;;;0.95;;
58615;SDS011;44385;51.992;4.206;2023-07-20T07:58:40;0.82;;;0.82;;
58615;SDS011;44385;51.992;4.206;2023-07-20T08:01:06;1.90;;;1.00;;
58615;SDS011;44385;51.992;4.206;2023-07-20T08:03:33;1.08;;;0.80;;
58615;SDS011;44385;51.992;4.206;2023-07-20T08:06:02;0.98;;;0.90;;
58615;SDS011;44385;51.992;4.206;2023-07-20T08:08:32;1.55;;;0.75;;
58615;SDS011;44385;51.992;4.206;2023-07-20T08:11:00;0.70;;;0.70;;
58615;SDS011;44385;51.992;4.206;2023-07-20T08:13:28;1.58;;;0.70;;
58615;SDS011;44385;51.992;4.206;2023-07-20T08:15:57;0.52;;;0.52;;
58615;SDS011;44385;51.992;4.206;2023-07-20T08:18:23;0.60;;;0.60;;
58615;SDS011;44385;51.992;4.206;2023-07-20T08:20:52;0.80;;;0.80;;
58615;SDS011;44385;51.992;4.206;2023-07-20T08:23:19;1.00;;;0.90;;
58615;SDS011;44385;51.992;4.206;2023-07-20T08:25:46;1.63;;;0.82;;
58615;SDS011;44385;51.992;4.206;2023-07-20T08:28:13;1.85;;;0.60;;
58615;SDS011;44385;51.992;4.206;2023-07-20T08:30:42;1.85;;;1.13;;
58615;SDS011;44385;51.992;4.206;2023-07-20T08:33:09;2.00;;;0.80;;
58615;SDS011;44385;51.992;4.206;2023-07-20T08:35:38;1.58;;;0.75;;
58615;SDS011;44385;51.992;4.206;2023-07-20T08:38:05;1.27;;;0.80;;
58615;SDS011;44385;51.992;4.206;2023-07-20T08:40:32;0.60;;;0.60;;
58615;SDS011;44385;51.992;4.206;2023-07-20T08:43:00;5.22;;;0.93;;
58615;SDS011;44385;51.992;4.206;2023-07-20T08:45:30;1.60;;;0.73;;
58615;SDS011;44385;51.992;4.206;2023-07-20T08:48:00;1.23;;;0.90;;
58615;SDS011;44385;51.992;4.206;2023-07-20T08:50:28;0.88;;;0.88;;
58615;SDS011;44385;51.992;4.206;2023-07-20T08:52:57;0.90;;;0.80;;
58615;SDS011;44385;51.992;4.206;2023-07-20T08:55:32;0.90;;;0.63;;
58615;SDS011;44385;51.992;4.206;2023-07-20T08:57:59;1.05;;;0.90;;
58615;SDS011;44385;51.992;4.206;2023-07-20T09:00:26;1.50;;;1.00;;
58615;SDS011;44385;51.992;4.206;2023-07-20T09:02:57;1.25;;;0.73;;
58615;SDS011;44385;51.992;4.206;2023-07-20T09:05:27;1.30;;;0.90;;
58615;SDS011;44385;51.992;4.206;2023-07-20T09:07:53;2.10;;;0.60;;
58615;SDS011;44385;51.992;4.206;2023-07-20T09:10:20;0.82;;;0.63;;
58615;SDS011;44385;51.992;4.206;2023-07-20T09:12:47;2.75;;;0.70;;
58615;SDS011;44385;51.992;4.206;2023-07-20T09:15:14;0.50;;;0.50;;
58615;SDS011;44385;51.992;4.206;2023-07-20T09:17:45;0.63;;;0.52;;
58615;SDS011;44385;51.992;4.206;2023-07-20T09:20:12;0.73;;;0.68;;
58615;SDS011;44385;51.992;4.206;2023-07-20T09:22:43;1.40;;;0.90;;
58615;SDS011;44385;51.992;4.206;2023-07-20T09:25:11;0.55;;;0.50;;
58615;SDS011;44385;51.992;4.206;2023-07-20T09:27:40;1.83;;;0.73;;
58615;SDS011;44385;51.992;4.206;2023-07-20T09:30:07;1.63;;;0.60;;
58615;SDS011;44385;51.992;4.206;2023-07-20T09:32:43;0.77;;;0.70;;
58615;SDS011;44385;51.992;4.206;2023-07-20T09:35:13;0.65;;;0.65;;
58615;SDS011;44385;51.992;4.206;2023-07-20T09:37:47;0.95;;;0.73;;
58615;SDS011;44385;51.992;4.206;2023-07-20T09:40:28;1.35;;;0.65;;
58615;SDS011;44385;51.992;4.206;2023-07-20T09:42:58;0.50;;;0.50;;
58615;SDS011;44385;51.992;4.206;2023-07-20T09:45:35;0.88;;;0.80;;
58615;SDS011;44385;51.992;4.206;2023-07-20T09:48:09;0.70;;;0.65;;
58615;SDS011;44385;51.992;4.206;2023-07-20T09:50:50;2.20;;;0.80;;
58615;SDS011;44385;51.992;4.206;2023-07-20T09:53:28;1.20;;;0.60;;
58615;SDS011;44385;51.992;4.206;2023-07-20T09:56:14;2.00;;;0.60;;
58615;SDS011;44385;51.992;4.206;2023-07-20T09:58:46;2.25;;;1.05;;
58615;SDS011;44385;51.992;4.206;2023-07-20T10:01:20;0.80;;;0.50;;
58615;SDS011;44385;51.992;4.206;2023-07-20T10:03:57;1.73;;;0.70;;
58615;SDS011;44385;51.992;4.206;2023-07-20T10:06:34;0.80;;;0.70;;
58615;SDS011;44385;51.992;4.206;2023-07-20T10:09:12;1.23;;;0.68;;
58615;SDS011;44385;51.992;4.206;2023-07-20T10:11:40;0.68;;;0.43;;
58615;SDS011;44385;51.992;4.206;2023-07-20T10:16:39;1.17;;;0.70;;
58615;SDS011;44385;51.992;4.206;2023-07-20T10:19:14;0.70;;;0.70;;
58615;SDS011;44385;51.992;4.206;2023-07-20T10:21:45;1.52;;;0.75;;
58615;SDS011;44385;51.992;4.206;2023-07-20T10:24:16;1.48;;;0.80;;
58615;SDS011;44385;51.992;4.206;2023-07-20T10:26:43;1.02;;;0.70;;
58615;SDS011;44385;51.992;4.206;2023-07-20T10:29:12;1.23;;;0.80;;
58615;SDS011;44385;51.992;4.206;2023-07-20T10:31:42;1.10;;;0.63;;
58615;SDS011;44385;51.992;4.206;2023-07-20T10:34:09;1.50;;;0.60;;
58615;SDS011;44385;51.992;4.206;2023-07-20T10:36:44;1.25;;;0.60;;
58615;SDS011;44385;51.992;4.206;2023-07-20T10:39:25;1.00;;;0.50;;
58615;SDS011;44385;51.992;4.206;2023-07-20T10:41:59;1.20;;;0.55;;
58615;SDS011;44385;51.992;4.206;2023-07-20T10:44:26;1.05;;;0.60;;
58615;SDS011;44385;51.992;4.206;2023-07-20T10:46:58;0.57;;;0.57;;
58615;SDS011;44385;51.992;4.206;2023-07-20T10:49:32;1.97;;;0.73;;
58615;SDS011;44385;51.992;4.206;2023-07-20T10:51:59;1.05;;;0.77;;
58615;SDS011;44385;51.992;4.206;2023-07-20T10:57:23;1.27;;;0.60;;
58615;SDS011;44385;51.992;4.206;2023-07-20T10:59:50;1.10;;;0.70;;
58615;SDS011;44385;51.992;4.206;2023-07-20T11:02:23;1.55;;;0.57;;
58615;SDS011;44385;51.992;4.206;2023-07-20T11:04:51;1.52;;;0.60;;
58615;SDS011;44385;51.992;4.206;2023-07-20T11:07:21;1.13;;;0.60;;
58615;SDS011;44385;51.992;4.206;2023-07-20T11:10:12;0.90;;;0.60;;
58615;SDS011;44385;51.992;4.206;2023-07-20T11:12:54;3.22;;;0.77;;
58615;SDS011;44385;51.992;4.206;2023-07-20T11:15:46;0.68;;;0.45;;
58615;SDS011;44385;51.992;4.206;2023-07-20T11:18:13;0.55;;;0.43;;
58615;SDS011;44385;51.992;4.206;2023-07-20T11:20:42;1.05;;;0.50;;
58615;SDS011;44385;51.992;4.206;2023-07-20T11:23:11;1.50;;;0.60;;
58615;SDS011;44385;51.992;4.206;2023-07-20T11:25:41;2.28;;;0.50;;
58615;SDS011;44385;51.992;4.206;2023-07-20T11:28:10;0.60;;;0.60;;
58615;SDS011;44385;51.992;4.206;2023-07-20T11:30:40;0.77;;;0.50;;
58615;SDS011;44385;51.992;4.206;2023-07-20T11:33:08;0.95;;;0.73;;
58615;SDS011;44385;51.992;4.206;2023-07-20T11:35:36;0.77;;;0.60;;
58615;SDS011;44385;51.992;4.206;2023-07-20T11:38:05;0.95;;;0.45;;
58615;SDS011;44385;51.992;4.206;2023-07-20T11:40:32;0.52;;;0.50;;
58615;SDS011;44385;51.992;4.206;2023-07-20T11:42:59;0.98;;;0.70;;
58615;SDS011;44385;51.992;4.206;2023-07-20T11:45:31;1.15;;;1.05;;
58615;SDS011;44385;51.992;4.206;2023-07-20T11:47:58;2.15;;;0.52;;
58615;SDS011;44385;51.992;4.206;2023-07-20T11:50:25;1.27;;;0.63;;
58615;SDS011;44385;51.992;4.206;2023-07-20T11:52:51;0.73;;;0.57;;
58615;SDS011;44385;51.992;4.206;2023-07-20T11:55:18;1.38;;;0.60;;
58615;SDS011;44385;51.992;4.206;2023-07-20T12:00:26;0.88;;;0.45;;
58615;SDS011;44385;51.992;4.206;2023-07-20T12:02:54;0.70;;;0.70;;
58615;SDS011;44385;51.992;4.206;2023-07-20T12:05:22;1.98;;;0.63;;
58615;SDS011;44385;51.992;4.206;2023-07-20T12:07:49;1.23;;;0.50;;
58615;SDS011;44385;51.992;4.206;2023-07-20T12:10:22;0.47;;;0.40;;
58615;SDS011;44385;51.992;4.206;2023-07-20T12:12:49;0.82;;;0.75;;
58615;SDS011;44385;51.992;4.206;2023-07-20T12:15:16;1.83;;;0.80;;
58615;SDS011;44385;51.992;4.206;2023-07-20T12:17:42;0.68;;;0.68;;
58615;SDS011;44385;51.992;4.206;2023-07-20T12:20:11;2.28;;;0.50;;
58615;SDS011;44385;51.992;4.206;2023-07-20T12:22:38;2.15;;;0.75;;
58615;SDS011;44385;51.992;4.206;2023-07-20T12:25:05;0.90;;;0.50;;
58615;SDS011;44385;51.992;4.206;2023-07-20T12:27:32;1.80;;;0.63;;
58615;SDS011;44385;51.992;4.206;2023-07-20T12:29:58;1.70;;;0.50;;
58615;SDS011;44385;51.992;4.206;2023-07-20T12:32:28;0.80;;;0.60;;
58615;SDS011;44385;51.992;4.206;2023-07-20T12:34:56;0.98;;;0.57;;
58615;SDS011;44385;51.992;4.206;2023-07-20T12:37:31;5.28;;;1.27;;
58615;SDS011;44385;51.992;4.206;2023-07-20T12:39:57;3.42;;;0.70;;
58615;SDS011;44385;51.992;4.206;2023-07-20T12:42:24;0.50;;;0.50;;
58615;SDS011;44385;51.992;4.206;2023-07-20T12:44:51;0.95;;;0.60;;
58615;SDS011;44385;51.992;4.206;2023-07-20T12:47:17;1.77;;;0.60;;
58615;SDS011;44385;51.992;4.206;2023-07-20T12:49:44;1.92;;;0.65;;
58615;SDS011;44385;51.992;4.206;2023-07-20T12:52:11;0.55;;;0.55;;
58615;SDS011;44385;51.992;4.206;2023-07-20T12:54:39;0.90;;;0.43;;
58615;SDS011;44385;51.992;4.206;2023-07-20T12:57:06;0.87;;;0.87;;
58615;SDS011;44385;51.992;4.206;2023-07-20T12:59:32;2.67;;;0.70;;
58615;SDS011;44385;51.992;4.206;2023-07-20T13:01:59;1.40;;;0.70;;
58615;SDS011;44385;51.992;4.206;2023-07-20T13:04:25;0.70;;;0.60;;
58615;SDS011;44385;51.992;4.206;2023-07-20T13:06:52;0.77;;;0.52;;
58615;SDS011;44385;51.992;4.206;2023-07-20T13:09:22;0.98;;;0.70;;
58615;SDS011;44385;51.992;4.206;2023-07-20T13:11:53;1.05;;;0.55;;
58615;SDS011;44385;51.992;4.206;2023-07-20T13:14:19;1.13;;;0.57;;
58615;SDS011;44385;51.992;4.206;2023-07-20T13:16:46;1.42;;;0.60;;
58615;SDS011;44385;51.992;4.206;2023-07-20T13:19:12;1.85;;;0.73;;
58615;SDS011;44385;51.992;4.206;2023-07-20T13:21:39;0.98;;;0.60;;
58615;SDS011;44385;51.992;4.206;2023-07-20T13:24:05;0.60;;;0.50;;
58615;SDS011;44385;51.992;4.206;2023-07-20T13:26:32;1.00;;;0.70;;
58615;SDS011;44385;51.992;4.206;2023-07-20T13:29:01;1.58;;;0.52;;
58615;SDS011;44385;51.992;4.206;2023-07-20T13:33:56;0.63;;;0.43;;
58615;SDS011;44385;51.992;4.206;2023-07-20T13:36:23;2.30;;;0.60;;
58615;SDS011;44385;51.992;4.206;2023-07-20T13:38:52;0.57;;;0.50;;
58615;SDS011;44385;51.992;4.206;2023-07-20T13:41:27;1.40;;;0.68;;
58615;SDS011;44385;51.992;4.206;2023-07-20T13:43:59;1.13;;;0.50;;
58615;SDS011;44385;51.992;4.206;2023-07-20T13:46:33;1.30;;;0.70;;
58615;SDS011;44385;51.992;4.206;2023-07-20T13:49:00;0.77;;;0.38;;
58615;SDS011;44385;51.992;4.206;2023-07-20T13:51:45;1.23;;;0.70;;
58615;SDS011;44385;51.992;4.206;2023-07-20T13:54:18;1.90;;;0.65;;
58615;SDS011;44385;51.992;4.206;2023-07-20T13:56:48;1.35;;;0.70;;
58615;SDS011;44385;51.992;4.206;2023-07-20T13:59:18;0.50;;;0.50;;
58615;SDS011;44385;51.992;4.206;2023-07-20T14:01:58;0.60;;;0.57;;
58615;SDS011;44385;51.992;4.206;2023-07-20T14:04:40;0.98;;;0.70;;
58615;SDS011;44385;51.992;4.206;2023-07-20T14:07:21;0.68;;;0.60;;
58615;SDS011;44385;51.992;4.206;2023-07-20T14:09:51;1.20;;;0.50;;
58615;SDS011;44385;51.992;4.206;2023-07-20T14:15:07;0.68;;;0.52;;
58615;SDS011;44385;51.992;4.206;2023-07-20T14:17:52;1.02;;;0.63;;
58615;SDS011;44385;51.992;4.206;2023-07-20T14:20:25;1.27;;;0.60;;
58615;SDS011;44385;51.992;4.206;2023-07-20T14:22:58;1.58;;;0.80;;
58615;SDS011;44385;51.992;4.206;2023-07-20T14:25:41;1.20;;;0.70;;
58615;SDS011;44385;51.992;4.206;2023-07-20T14:30:38;0.50;;;0.50;;
58615;SDS011;44385;51.992;4.206;2023-07-20T14:33:12;0.50;;;0.50;;
58615;SDS011;44385;51.992;4.206;2023-07-20T14:35:40;0.95;;;0.50;;
58615;SDS011;44385;51.992;4.206;2023-07-20T14:38:18;1.38;;;0.60;;
58615;SDS011;44385;51.992;4.206;2023-07-20T14:40:53;2.00;;;0.68;;
58615;SDS011;44385;51.992;4.206;2023-07-20T14:43:26;1.20;;;0.47;;
58615;SDS011;44385;51.992;4.206;2023-07-20T14:45:58;1.40;;;0.63;;
58615;SDS011;44385;51.992;4.206;2023-07-20T14:48:41;1.42;;;0.77;;
58615;SDS011;44385;51.992;4.206;2023-07-20T14:51:12;1.33;;;0.70;;
58615;SDS011;44385;51.992;4.206;2023-07-20T14:53:51;0.88;;;0.60;;
58615;SDS011;44385;51.992;4.206;2023-07-20T14:56:21;0.60;;;0.60;;
58615;SDS011;44385;51.992;4.206;2023-07-20T14:58:50;0.95;;;0.70;;
58615;SDS011;44385;51.992;4.206;2023-07-20T15:01:20;1.60;;;0.60;;
58615;SDS011;44385;51.992;4.206;2023-07-20T15:03:59;2.20;;;0.60;;
58615;SDS011;44385;51.992;4.206;2023-07-20T15:06:44;1.40;;;0.60;;
58615;SDS011;44385;51.992;4.206;2023-07-20T15:09:13;1.13;;;0.50;;
58615;SDS011;44385;51.992;4.206;2023-07-20T15:11:44;0.82;;;0.80;;
58615;SDS011;44385;51.992;4.206;2023-07-20T15:14:10;1.30;;;0.63;;
58615;SDS011;44385;51.992;4.206;2023-07-20T15:16:40;0.85;;;0.82;;
58615;SDS011;44385;51.992;4.206;2023-07-20T15:19:15;1.10;;;0.70;;
58615;SDS011;44385;51.992;4.206;2023-07-20T15:21:44;1.20;;;0.60;;
58615;SDS011;44385;51.992;4.206;2023-07-20T15:24:28;1.77;;;0.70;;
58615;SDS011;44385;51.992;4.206;2023-07-20T15:27:05;0.73;;;0.68;;
58615;SDS011;44385;51.992;4.206;2023-07-20T15:29:34;2.38;;;0.77;;
58615;SDS011;44385;51.992;4.206;2023-07-20T15:32:07;0.60;;;0.60;;
58615;SDS011;44385;51.992;4.206;2023-07-20T15:34:35;1.08;;;0.45;;
58615;SDS011;44385;51.992;4.206;2023-07-20T15:37:04;1.33;;;0.77;;
58615;SDS011;44385;51.992;4.206;2023-07-20T15:39:31;0.57;;;0.50;;
58615;SDS011;44385;51.992;4.206;2023-07-20T15:42:00;0.73;;;0.65;;
58615;SDS011;44385;51.992;4.206;2023-07-20T15:44:28;1.10;;;0.60;;
58615;SDS011;44385;51.992;4.206;2023-07-20T15:46:57;0.65;;;0.65;;
58615;SDS011;44385;51.992;4.206;2023-07-20T15:49:31;0.57;;;0.52;;
58615;SDS011;44385;51.992;4.206;2023-07-20T15:52:00;1.25;;;0.60;;
58615;SDS011;44385;51.992;4.206;2023-07-20T15:54:38;0.98;;;0.60;;
58615;SDS011;44385;51.992;4.206;2023-07-20T15:57:43;1.48;;;0.70;;
58615;SDS011;44385;51.992;4.206;2023-07-20T16:00:18;0.88;;;0.60;;
58615;SDS011;44385;51.992;4.206;2023-07-20T16:02:46;0.68;;;0.65;;